sensor_id;sensor_type;location;lat;lon;timestamp;P1;durP1;ratioP1;P2;durP2;ratioP2
68216;SDS011;55037;52.354;4.992;2024-01-06T00:01:26;21.20;;;19.50;;
68216;SDS011;55037;52.354;4.992;2024-01-06T00:03:54;19.10;;;17.80;;
68216;SDS011;55037;52.354;4.992;2024-01-06T00:06:22;21.00;;;19.43;;
68216;SDS011;55037;52.354;4.992;2024-01-06T00:08:50;19.67;;;18.17;;
68216;SDS011;55037;52.354;4.992;2024-01-06T00:11:21;19.53;;;18.03;;
68216;SDS011;55037;52.354;4.992;2024-01-06T00:13:49;21.05;;;19.45;;
68216;SDS011;55037;52.354;4.992;2024-01-06T00:16:17;19.40;;;18.00;;
68216;SDS011;55037;52.354;4.992;2024-01-06T00:18:46;20.42;;;18.92;;
68216;SDS011;55037;52.354;4.992;2024-01-06T00:21:14;20.70;;;18.90;;
68216;SDS011;55037;52.354;4.992;2024-01-06T00:23:42;22.00;;;20.30;;
68216;SDS011;55037;52.354;4.992;2024-01-06T00:26:09;20.52;;;19.02;;
68216;SDS011;55037;52.354;4.992;2024-01-06T00:28:38;20.65;;;19.05;;
68216;SDS011;55037;52.354;4.992;2024-01-06T00:31:06;22.15;;;20.30;;
68216;SDS011;55037;52.354;4.992;2024-01-06T00:33:33;22.48;;;20.58;;
68216;SDS011;55037;52.354;4.992;2024-01-06T00:36:01;21.33;;;19.53;;
68216;SDS011;55037;52.354;4.992;2024-01-06T00:38:29;23.92;;;21.92;;
68216;SDS011;55037;52.354;4.992;2024-01-06T00:40:57;22.23;;;20.42;;
68216;SDS011;55037;52.354;4.992;2024-01-06T00:43:24;21.58;;;19.83;;
68216;SDS011;55037;52.354;4.992;2024-01-06T00:45:52;23.20;;;20.70;;
68216;SDS011;55037;52.354;4.992;2024-01-06T00:48:20;21.30;;;19.55;;
68216;SDS011;55037;52.354;4.992;2024-01-06T00:50:47;23.85;;;21.88;;
68216;SDS011;55037;52.354;4.992;2024-01-06T00:53:15;24.23;;;21.97;;
68216;SDS011;55037;52.354;4.992;2024-01-06T00:55:42;21.70;;;20.00;;
68216;SDS011;55037;52.354;4.992;2024-01-06T00:58:10;22.40;;;20.42;;
68216;SDS011;55037;52.354;4.992;2024-01-06T01:00:38;23.30;;;21.40;;
68216;SDS011;55037;52.354;4.992;2024-01-06T01:03:06;21.33;;;19.63;;
68216;SDS011;55037;52.354;4.992;2024-01-06T01:05:34;21.90;;;20.10;;
68216;SDS011;55037;52.354;4.992;2024-01-06T01:08:02;21.15;;;19.50;;
68216;SDS011;55037;52.354;4.992;2024-01-06T01:10:29;21.93;;;20.33;;
68216;SDS011;55037;52.354;4.992;2024-01-06T01:12:57;23.30;;;21.20;;
68216;SDS011;55037;52.354;4.992;2024-01-06T01:15:24;23.33;;;21.40;;
68216;SDS011;55037;52.354;4.992;2024-01-06T01:17:52;20.67;;;19.17;;
68216;SDS011;55037;52.354;4.992;2024-01-06T01:20:20;21.00;;;19.50;;
68216;SDS011;55037;52.354;4.992;2024-01-06T01:22:47;23.25;;;21.30;;
68216;SDS011;55037;52.354;4.992;2024-01-06T01:25:15;22.05;;;20.35;;
68216;SDS011;55037;52.354;4.992;2024-01-06T01:27:43;20.53;;;18.83;;
68216;SDS011;55037;52.354;4.992;2024-01-06T01:30:11;22.17;;;20.27;;
68216;SDS011;55037;52.354;4.992;2024-01-06T01:32:39;22.50;;;20.70;;
68216;SDS011;55037;52.354;4.992;2024-01-06T01:35:06;22.10;;;20.00;;
68216;SDS011;55037;52.354;4.992;2024-01-06T01:37:34;22.75;;;20.95;;
68216;SDS011;55037;52.354;4.992;2024-01-06T01:40:02;21.00;;;18.83;;
68216;SDS011;55037;52.354;4.992;2024-01-06T01:42:30;21.98;;;20.25;;
68216;SDS011;55037;52.354;4.992;2024-01-06T01:44:57;19.90;;;18.33;;
68216;SDS011;55037;52.354;4.992;2024-01-06T01:47:25;22.55;;;20.75;;
68216;SDS011;55037;52.354;4.992;2024-01-06T01:49:54;21.13;;;19.43;;
68216;SDS011;55037;52.354;4.992;2024-01-06T01:52:23;20.00;;;18.42;;
68216;SDS011;55037;52.354;4.992;2024-01-06T01:54:51;20.90;;;19.20;;
68216;SDS011;55037;52.354;4.992;2024-01-06T01:57:19;20.33;;;18.73;;
68216;SDS011;55037;52.354;4.992;2024-01-06T01:59:48;20.83;;;19.23;;
68216;SDS011;55037;52.354;4.992;2024-01-06T02:02:16;20.58;;;19.02;;
68216;SDS011;55037;52.354;4.992;2024-01-06T02:04:44;18.50;;;17.02;;
68216;SDS011;55037;52.354;4.992;2024-01-06T02:07:12;21.23;;;19.42;;
68216;SDS011;55037;52.354;4.992;2024-01-06T02:09:40;21.33;;;19.63;;
68216;SDS011;55037;52.354;4.992;2024-01-06T02:12:08;22.37;;;20.47;;
68216;SDS011;55037;52.354;4.992;2024-01-06T02:14:35;21.15;;;19.52;;
68216;SDS011;55037;52.354;4.992;2024-01-06T02:17:03;21.80;;;20.00;;
68216;SDS011;55037;52.354;4.992;2024-01-06T02:19:30;21.17;;;19.52;;
68216;SDS011;55037;52.354;4.992;2024-01-06T02:21:58;21.13;;;19.43;;
68216;SDS011;55037;52.354;4.992;2024-01-06T02:24:27;20.23;;;18.63;;
68216;SDS011;55037;52.354;4.992;2024-01-06T02:26:55;22.60;;;20.48;;
68216;SDS011;55037;52.354;4.992;2024-01-06T02:29:23;21.80;;;20.10;;
68216;SDS011;55037;52.354;4.992;2024-01-06T02:31:50;22.60;;;20.70;;
68216;SDS011;55037;52.354;4.992;2024-01-06T02:34:18;22.80;;;20.93;;
68216;SDS011;55037;52.354;4.992;2024-01-06T02:36:45;24.02;;;21.90;;
68216;SDS011;55037;52.354;4.992;2024-01-06T02:39:13;21.88;;;20.10;;
68216;SDS011;55037;52.354;4.992;2024-01-06T02:41:41;22.98;;;21.05;;
68216;SDS011;55037;52.354;4.992;2024-01-06T02:44:08;22.50;;;20.53;;
68216;SDS011;55037;52.354;4.992;2024-01-06T02:46:39;20.65;;;19.17;;
68216;SDS011;55037;52.354;4.992;2024-01-06T02:49:07;21.57;;;19.77;;
68216;SDS011;55037;52.354;4.992;2024-01-06T02:51:35;22.98;;;21.17;;
68216;SDS011;55037;52.354;4.992;2024-01-06T02:54:03;23.13;;;20.83;;
68216;SDS011;55037;52.354;4.992;2024-01-06T02:56:31;21.55;;;19.85;;
68216;SDS011;55037;52.354;4.992;2024-01-06T02:58:58;23.50;;;21.38;;
68216;SDS011;55037;52.354;4.992;2024-01-06T03:01:26;20.10;;;18.50;;
68216;SDS011;55037;52.354;4.992;2024-01-06T03:03:53;22.55;;;20.58;;
68216;SDS011;55037;52.354;4.992;2024-01-06T03:06:21;22.75;;;20.55;;
68216;SDS011;55037;52.354;4.992;2024-01-06T03:08:49;24.10;;;21.90;;
68216;SDS011;55037;52.354;4.992;2024-01-06T03:11:16;23.65;;;21.65;;
68216;SDS011;55037;52.354;4.992;2024-01-06T03:13:44;22.63;;;20.52;;
68216;SDS011;55037;52.354;4.992;2024-01-06T03:16:12;22.88;;;20.90;;
68216;SDS011;55037;52.354;4.992;2024-01-06T03:18:39;23.80;;;21.60;;
68216;SDS011;55037;52.354;4.992;2024-01-06T03:21:19;22.92;;;20.83;;
68216;SDS011;55037;52.354;4.992;2024-01-06T03:23:48;22.43;;;20.53;;
68216;SDS011;55037;52.354;4.992;2024-01-06T03:26:16;22.10;;;20.33;;
68216;SDS011;55037;52.354;4.992;2024-01-06T03:28:44;22.40;;;20.40;;
68216;SDS011;55037;52.354;4.992;2024-01-06T03:31:12;20.27;;;18.77;;
68216;SDS011;55037;52.354;4.992;2024-01-06T03:33:39;20.30;;;18.70;;
68216;SDS011;55037;52.354;4.992;2024-01-06T03:36:07;20.33;;;18.63;;
68216;SDS011;55037;52.354;4.992;2024-01-06T03:38:35;20.30;;;18.70;;
68216;SDS011;55037;52.354;4.992;2024-01-06T03:41:02;20.67;;;19.02;;
68216;SDS011;55037;52.354;4.992;2024-01-06T03:43:30;20.38;;;18.92;;
68216;SDS011;55037;52.354;4.992;2024-01-06T03:45:58;21.50;;;19.63;;
68216;SDS011;55037;52.354;4.992;2024-01-06T03:48:27;20.70;;;18.98;;
68216;SDS011;55037;52.354;4.992;2024-01-06T03:50:54;22.50;;;20.70;;
68216;SDS011;55037;52.354;4.992;2024-01-06T03:53:22;20.73;;;19.00;;
68216;SDS011;55037;52.354;4.992;2024-01-06T03:55:53;21.27;;;19.50;;
68216;SDS011;55037;52.354;4.992;2024-01-06T03:58:20;20.60;;;19.00;;
68216;SDS011;55037;52.354;4.992;2024-01-06T04:00:48;19.33;;;17.98;;
68216;SDS011;55037;52.354;4.992;2024-01-06T04:03:15;21.00;;;19.50;;
68216;SDS011;55037;52.354;4.992;2024-01-06T04:05:43;20.67;;;18.90;;
68216;SDS011;55037;52.354;4.992;2024-01-06T04:08:11;20.92;;;19.33;;
68216;SDS011;55037;52.354;4.992;2024-01-06T04:10:38;21.60;;;19.90;;
68216;SDS011;55037;52.354;4.992;2024-01-06T04:13:08;20.63;;;19.02;;
68216;SDS011;55037;52.354;4.992;2024-01-06T04:15:35;22.27;;;20.57;;
68216;SDS011;55037;52.354;4.992;2024-01-06T04:18:03;21.85;;;20.05;;
68216;SDS011;55037;52.354;4.992;2024-01-06T04:20:32;22.17;;;20.35;;
68216;SDS011;55037;52.354;4.992;2024-01-06T04:22:59;21.10;;;19.40;;
68216;SDS011;55037;52.354;4.992;2024-01-06T04:25:29;21.40;;;19.70;;
68216;SDS011;55037;52.354;4.992;2024-01-06T04:27:57;20.65;;;19.15;;
68216;SDS011;55037;52.354;4.992;2024-01-06T04:30:25;20.77;;;18.88;;
68216;SDS011;55037;52.354;4.992;2024-01-06T04:32:52;21.00;;;19.20;;
68216;SDS011;55037;52.354;4.992;2024-01-06T04:35:20;20.00;;;18.50;;
68216;SDS011;55037;52.354;4.992;2024-01-06T04:37:48;22.73;;;21.02;;
68216;SDS011;55037;52.354;4.992;2024-01-06T04:40:16;21.83;;;20.13;;
68216;SDS011;55037;52.354;4.992;2024-01-06T04:42:43;20.30;;;18.80;;
68216;SDS011;55037;52.354;4.992;2024-01-06T04:45:11;19.77;;;18.27;;
68216;SDS011;55037;52.354;4.992;2024-01-06T04:47:39;20.33;;;18.73;;
68216;SDS011;55037;52.354;4.992;2024-01-06T04:50:06;20.25;;;18.70;;
68216;SDS011;55037;52.354;4.992;2024-01-06T04:52:34;20.98;;;19.38;;
68216;SDS011;55037;52.354;4.992;2024-01-06T04:55:02;19.65;;;18.15;;
68216;SDS011;55037;52.354;4.992;2024-01-06T04:57:29;20.85;;;19.27;;
68216;SDS011;55037;52.354;4.992;2024-01-06T04:59:57;22.23;;;20.35;;
68216;SDS011;55037;52.354;4.992;2024-01-06T05:02:25;20.70;;;19.15;;
68216;SDS011;55037;52.354;4.992;2024-01-06T05:04:52;20.83;;;19.33;;
68216;SDS011;55037;52.354;4.992;2024-01-06T05:07:20;20.80;;;19.40;;
68216;SDS011;55037;52.354;4.992;2024-01-06T05:09:48;21.95;;;20.17;;
68216;SDS011;55037;52.354;4.992;2024-01-06T05:12:15;20.45;;;18.77;;
68216;SDS011;55037;52.354;4.992;2024-01-06T05:14:43;21.73;;;20.13;;
68216;SDS011;55037;52.354;4.992;2024-01-06T05:17:11;20.20;;;18.70;;
68216;SDS011;55037;52.354;4.992;2024-01-06T05:19:38;19.88;;;18.48;;
68216;SDS011;55037;52.354;4.992;2024-01-06T05:22:06;22.60;;;20.90;;
68216;SDS011;55037;52.354;4.992;2024-01-06T05:24:34;20.60;;;19.10;;
68216;SDS011;55037;52.354;4.992;2024-01-06T05:27:01;20.48;;;18.98;;
68216;SDS011;55037;52.354;4.992;2024-01-06T05:29:29;20.83;;;19.33;;
68216;SDS011;55037;52.354;4.992;2024-01-06T05:31:57;22.63;;;21.03;;
68216;SDS011;55037;52.354;4.992;2024-01-06T05:34:24;21.88;;;20.25;;
68216;SDS011;55037;52.354;4.992;2024-01-06T05:36:52;21.65;;;20.05;;
68216;SDS011;55037;52.354;4.992;2024-01-06T05:39:20;20.70;;;19.17;;
68216;SDS011;55037;52.354;4.992;2024-01-06T05:41:47;20.60;;;18.90;;
68216;SDS011;55037;52.354;4.992;2024-01-06T05:44:15;21.08;;;19.60;;
68216;SDS011;55037;52.354;4.992;2024-01-06T05:46:43;19.95;;;18.55;;
68216;SDS011;55037;52.354;4.992;2024-01-06T05:49:10;21.83;;;20.23;;
68216;SDS011;55037;52.354;4.992;2024-01-06T05:51:43;21.00;;;19.55;;
68216;SDS011;55037;52.354;4.992;2024-01-06T05:54:11;21.63;;;20.05;;
68216;SDS011;55037;52.354;4.992;2024-01-06T05:56:39;22.02;;;20.52;;
68216;SDS011;55037;52.354;4.992;2024-01-06T05:59:07;20.88;;;19.33;;
68216;SDS011;55037;52.354;4.992;2024-01-06T06:01:34;22.67;;;20.87;;
68216;SDS011;55037;52.354;4.992;2024-01-06T06:04:02;20.58;;;19.17;;
68216;SDS011;55037;52.354;4.992;2024-01-06T06:06:30;21.85;;;20.17;;
68216;SDS011;55037;52.354;4.992;2024-01-06T06:08:58;21.48;;;19.98;;
68216;SDS011;55037;52.354;4.992;2024-01-06T06:11:25;21.77;;;20.25;;
68216;SDS011;55037;52.354;4.992;2024-01-06T06:13:53;21.58;;;19.90;;
68216;SDS011;55037;52.354;4.992;2024-01-06T06:16:21;20.45;;;19.02;;
68216;SDS011;55037;52.354;4.992;2024-01-06T06:18:49;21.13;;;19.63;;
68216;SDS011;55037;52.354;4.992;2024-01-06T06:21:16;19.80;;;18.30;;
68216;SDS011;55037;52.354;4.992;2024-01-06T06:23:44;21.08;;;19.33;;
68216;SDS011;55037;52.354;4.992;2024-01-06T06:26:11;19.98;;;18.55;;
68216;SDS011;55037;52.354;4.992;2024-01-06T06:28:39;19.27;;;17.87;;
68216;SDS011;55037;52.354;4.992;2024-01-06T06:31:07;18.88;;;17.58;;
68216;SDS011;55037;52.354;4.992;2024-01-06T06:33:34;19.23;;;17.80;;
68216;SDS011;55037;52.354;4.992;2024-01-06T06:36:02;19.70;;;18.33;;
68216;SDS011;55037;52.354;4.992;2024-01-06T06:38:30;21.38;;;19.67;;
68216;SDS011;55037;52.354;4.992;2024-01-06T06:40:57;20.55;;;19.15;;
68216;SDS011;55037;52.354;4.992;2024-01-06T06:43:25;20.45;;;19.02;;
68216;SDS011;55037;52.354;4.992;2024-01-06T06:45:53;21.05;;;19.58;;
68216;SDS011;55037;52.354;4.992;2024-01-06T06:48:22;21.90;;;20.30;;
68216;SDS011;55037;52.354;4.992;2024-01-06T06:50:50;20.67;;;18.77;;
68216;SDS011;55037;52.354;4.992;2024-01-06T06:53:17;18.83;;;17.30;;
68216;SDS011;55037;52.354;4.992;2024-01-06T06:55:45;20.50;;;19.00;;
68216;SDS011;55037;52.354;4.992;2024-01-06T06:58:13;22.23;;;20.13;;
68216;SDS011;55037;52.354;4.992;2024-01-06T07:00:41;22.95;;;21.25;;
68216;SDS011;55037;52.354;4.992;2024-01-06T07:03:09;20.15;;;18.75;;
68216;SDS011;55037;52.354;4.992;2024-01-06T07:05:37;21.58;;;19.98;;
68216;SDS011;55037;52.354;4.992;2024-01-06T07:08:06;21.63;;;20.00;;
68216;SDS011;55037;52.354;4.992;2024-01-06T07:10:34;22.05;;;20.35;;
68216;SDS011;55037;52.354;4.992;2024-01-06T07:13:01;22.20;;;20.48;;
68216;SDS011;55037;52.354;4.992;2024-01-06T07:15:29;21.67;;;20.02;;
68216;SDS011;55037;52.354;4.992;2024-01-06T07:17:57;19.77;;;18.38;;
68216;SDS011;55037;52.354;4.992;2024-01-06T07:20:24;21.80;;;20.13;;
68216;SDS011;55037;52.354;4.992;2024-01-06T07:22:52;23.05;;;21.35;;
68216;SDS011;55037;52.354;4.992;2024-01-06T07:25:20;21.67;;;20.00;;
68216;SDS011;55037;52.354;4.992;2024-01-06T07:27:47;23.65;;;21.83;;
68216;SDS011;55037;52.354;4.992;2024-01-06T07:30:18;22.50;;;20.80;;
68216;SDS011;55037;52.354;4.992;2024-01-06T07:32:46;22.17;;;20.30;;
68216;SDS011;55037;52.354;4.992;2024-01-06T07:35:16;23.25;;;21.42;;
68216;SDS011;55037;52.354;4.992;2024-01-06T07:37:45;22.38;;;20.48;;
68216;SDS011;55037;52.354;4.992;2024-01-06T07:40:12;21.10;;;19.60;;
68216;SDS011;55037;52.354;4.992;2024-01-06T07:42:43;21.83;;;20.00;;
68216;SDS011;55037;52.354;4.992;2024-01-06T07:45:11;21.25;;;19.45;;
68216;SDS011;55037;52.354;4.992;2024-01-06T07:47:40;22.25;;;20.55;;
68216;SDS011;55037;52.354;4.992;2024-01-06T07:50:08;19.37;;;17.97;;
68216;SDS011;55037;52.354;4.992;2024-01-06T07:52:36;21.70;;;20.15;;
68216;SDS011;55037;52.354;4.992;2024-01-06T07:55:03;19.63;;;18.17;;
68216;SDS011;55037;52.354;4.992;2024-01-06T07:57:31;21.80;;;20.10;;
68216;SDS011;55037;52.354;4.992;2024-01-06T07:59:59;20.70;;;18.90;;
68216;SDS011;55037;52.354;4.992;2024-01-06T08:02:37;20.00;;;18.60;;
68216;SDS011;55037;52.354;4.992;2024-01-06T08:05:05;19.90;;;18.50;;
68216;SDS011;55037;52.354;4.992;2024-01-06T08:07:33;20.30;;;18.90;;
68216;SDS011;55037;52.354;4.992;2024-01-06T08:10:01;20.92;;;19.42;;
68216;SDS011;55037;52.354;4.992;2024-01-06T08:12:32;19.75;;;18.35;;
68216;SDS011;55037;52.354;4.992;2024-01-06T08:15:01;21.60;;;19.80;;
68216;SDS011;55037;52.354;4.992;2024-01-06T08:17:29;22.35;;;20.50;;
68216;SDS011;55037;52.354;4.992;2024-01-06T08:19:56;21.55;;;19.88;;
68216;SDS011;55037;52.354;4.992;2024-01-06T08:22:24;21.10;;;19.25;;
68216;SDS011;55037;52.354;4.992;2024-01-06T08:24:51;21.52;;;19.92;;
68216;SDS011;55037;52.354;4.992;2024-01-06T08:27:19;22.55;;;20.63;;
68216;SDS011;55037;52.354;4.992;2024-01-06T08:29:48;19.63;;;18.10;;
68216;SDS011;55037;52.354;4.992;2024-01-06T08:32:16;19.80;;;18.30;;
68216;SDS011;55037;52.354;4.992;2024-01-06T08:34:44;19.92;;;18.45;;
68216;SDS011;55037;52.354;4.992;2024-01-06T08:37:11;20.23;;;18.67;;
68216;SDS011;55037;52.354;4.992;2024-01-06T08:39:39;20.48;;;19.05;;
68216;SDS011;55037;52.354;4.992;2024-01-06T08:42:07;20.53;;;19.07;;
68216;SDS011;55037;52.354;4.992;2024-01-06T08:44:35;20.73;;;19.05;;
68216;SDS011;55037;52.354;4.992;2024-01-06T08:47:03;21.20;;;19.40;;
68216;SDS011;55037;52.354;4.992;2024-01-06T08:49:31;20.70;;;19.07;;
68216;SDS011;55037;52.354;4.992;2024-01-06T08:51:58;19.65;;;18.25;;
68216;SDS011;55037;52.354;4.992;2024-01-06T08:54:26;18.10;;;16.90;;
68216;SDS011;55037;52.354;4.992;2024-01-06T08:56:56;19.70;;;18.15;;
68216;SDS011;55037;52.354;4.992;2024-01-06T08:59:24;20.00;;;18.30;;
68216;SDS011;55037;52.354;4.992;2024-01-06T09:01:51;18.27;;;16.98;;
68216;SDS011;55037;52.354;4.992;2024-01-06T09:04:19;18.60;;;17.20;;
68216;SDS011;55037;52.354;4.992;2024-01-06T09:06:47;18.75;;;17.45;;
68216;SDS011;55037;52.354;4.992;2024-01-06T09:09:15;19.53;;;18.13;;
68216;SDS011;55037;52.354;4.992;2024-01-06T09:11:43;19.95;;;18.55;;
68216;SDS011;55037;52.354;4.992;2024-01-06T09:14:11;18.48;;;17.05;;
68216;SDS011;55037;52.354;4.992;2024-01-06T09:16:38;19.08;;;17.58;;
68216;SDS011;55037;52.354;4.992;2024-01-06T09:19:06;20.65;;;19.02;;
68216;SDS011;55037;52.354;4.992;2024-01-06T09:21:34;19.98;;;18.55;;
68216;SDS011;55037;52.354;4.992;2024-01-06T09:24:02;20.08;;;18.50;;
68216;SDS011;55037;52.354;4.992;2024-01-06T09:26:33;19.08;;;17.65;;
68216;SDS011;55037;52.354;4.992;2024-01-06T09:29:01;19.38;;;17.98;;
68216;SDS011;55037;52.354;4.992;2024-01-06T09:31:29;19.90;;;18.25;;
68216;SDS011;55037;52.354;4.992;2024-01-06T09:34:00;19.33;;;17.73;;
68216;SDS011;55037;52.354;4.992;2024-01-06T09:36:32;19.08;;;17.70;;
68216;SDS011;55037;52.354;4.992;2024-01-06T09:39:00;19.38;;;17.77;;
68216;SDS011;55037;52.354;4.992;2024-01-06T09:41:28;19.83;;;18.33;;
68216;SDS011;55037;52.354;4.992;2024-01-06T09:43:56;20.42;;;18.95;;
68216;SDS011;55037;52.354;4.992;2024-01-06T09:46:24;19.42;;;17.83;;
68216;SDS011;55037;52.354;4.992;2024-01-06T09:49:02;19.88;;;18.27;;
68216;SDS011;55037;52.354;4.992;2024-01-06T09:51:30;20.80;;;19.10;;
68216;SDS011;55037;52.354;4.992;2024-01-06T09:53:58;20.77;;;19.17;;
68216;SDS011;55037;52.354;4.992;2024-01-06T09:56:27;18.90;;;17.35;;
68216;SDS011;55037;52.354;4.992;2024-01-06T09:58:55;20.77;;;19.17;;
68216;SDS011;55037;52.354;4.992;2024-01-06T10:01:23;20.50;;;19.00;;
68216;SDS011;55037;52.354;4.992;2024-01-06T10:03:51;19.27;;;17.87;;
68216;SDS011;55037;52.354;4.992;2024-01-06T10:06:19;20.98;;;19.27;;
68216;SDS011;55037;52.354;4.992;2024-01-06T10:08:48;21.17;;;19.48;;
68216;SDS011;55037;52.354;4.992;2024-01-06T10:11:16;19.77;;;18.17;;
68216;SDS011;55037;52.354;4.992;2024-01-06T10:13:43;19.15;;;17.35;;
68216;SDS011;55037;52.354;4.992;2024-01-06T10:16:11;18.48;;;17.08;;
68216;SDS011;55037;52.354;4.992;2024-01-06T10:18:39;17.08;;;15.73;;
68216;SDS011;55037;52.354;4.992;2024-01-06T10:21:07;17.20;;;15.70;;
68216;SDS011;55037;52.354;4.992;2024-01-06T10:23:34;17.65;;;15.88;;
68216;SDS011;55037;52.354;4.992;2024-01-06T10:26:03;18.02;;;16.60;;
68216;SDS011;55037;52.354;4.992;2024-01-06T10:28:31;16.88;;;15.50;;
68216;SDS011;55037;52.354;4.992;2024-01-06T10:30:59;17.03;;;15.67;;
68216;SDS011;55037;52.354;4.992;2024-01-06T10:33:28;15.52;;;13.93;;
68216;SDS011;55037;52.354;4.992;2024-01-06T10:35:55;11.95;;;10.95;;
68216;SDS011;55037;52.354;4.992;2024-01-06T10:38:25;10.50;;;9.63;;
68216;SDS011;55037;52.354;4.992;2024-01-06T10:40:56;11.63;;;10.52;;
68216;SDS011;55037;52.354;4.992;2024-01-06T10:43:25;11.38;;;10.38;;
68216;SDS011;55037;52.354;4.992;2024-01-06T10:45:56;11.55;;;10.45;;
68216;SDS011;55037;52.354;4.992;2024-01-06T10:48:26;13.82;;;12.68;;
68216;SDS011;55037;52.354;4.992;2024-01-06T10:50:54;11.35;;;10.23;;
68216;SDS011;55037;52.354;4.992;2024-01-06T10:53:22;12.27;;;11.18;;
68216;SDS011;55037;52.354;4.992;2024-01-06T10:55:51;13.25;;;12.05;;
68216;SDS011;55037;52.354;4.992;2024-01-06T10:58:22;15.05;;;13.85;;
68216;SDS011;55037;52.354;4.992;2024-01-06T11:00:50;13.07;;;11.85;;
68216;SDS011;55037;52.354;4.992;2024-01-06T11:03:18;12.00;;;10.90;;
68216;SDS011;55037;52.354;4.992;2024-01-06T11:05:46;14.68;;;13.43;;
68216;SDS011;55037;52.354;4.992;2024-01-06T11:08:16;14.80;;;13.70;;
68216;SDS011;55037;52.354;4.992;2024-01-06T11:10:44;15.07;;;13.77;;
68216;SDS011;55037;52.354;4.992;2024-01-06T11:13:12;14.57;;;13.48;;
68216;SDS011;55037;52.354;4.992;2024-01-06T11:15:41;13.60;;;12.60;;
68216;SDS011;55037;52.354;4.992;2024-01-06T11:18:10;15.35;;;14.25;;
68216;SDS011;55037;52.354;4.992;2024-01-06T11:21:14;16.70;;;15.10;;
68216;SDS011;55037;52.354;4.992;2024-01-06T11:24:07;15.30;;;14.15;;
68216;SDS011;55037;52.354;4.992;2024-01-06T11:26:39;15.40;;;14.30;;
68216;SDS011;55037;52.354;4.992;2024-01-06T11:29:09;16.60;;;15.13;;
68216;SDS011;55037;52.354;4.992;2024-01-06T11:31:37;16.35;;;15.10;;
68216;SDS011;55037;52.354;4.992;2024-01-06T11:34:17;16.55;;;15.05;;
68216;SDS011;55037;52.354;4.992;2024-01-06T11:36:47;15.98;;;14.73;;
68216;SDS011;55037;52.354;4.992;2024-01-06T11:39:34;17.63;;;16.33;;
68216;SDS011;55037;52.354;4.992;2024-01-06T11:42:03;16.35;;;15.15;;
68216;SDS011;55037;52.354;4.992;2024-01-06T11:44:44;18.85;;;17.30;;
68216;SDS011;55037;52.354;4.992;2024-01-06T11:47:12;18.10;;;16.50;;
68216;SDS011;55037;52.354;4.992;2024-01-06T11:49:44;18.23;;;16.77;;
68216;SDS011;55037;52.354;4.992;2024-01-06T11:52:14;17.40;;;15.80;;
68216;SDS011;55037;52.354;4.992;2024-01-06T11:54:41;17.27;;;15.85;;
68216;SDS011;55037;52.354;4.992;2024-01-06T11:57:09;17.63;;;16.13;;
68216;SDS011;55037;52.354;4.992;2024-01-06T11:59:37;16.27;;;14.68;;
68216;SDS011;55037;52.354;4.992;2024-01-06T12:02:04;17.40;;;15.90;;
68216;SDS011;55037;52.354;4.992;2024-01-06T12:04:32;15.53;;;14.30;;
68216;SDS011;55037;52.354;4.992;2024-01-06T12:07:09;16.67;;;15.20;;
68216;SDS011;55037;52.354;4.992;2024-01-06T12:09:41;15.73;;;14.43;;
68216;SDS011;55037;52.354;4.992;2024-01-06T12:12:08;15.57;;;14.27;;
68216;SDS011;55037;52.354;4.992;2024-01-06T12:14:37;16.60;;;15.30;;
68216;SDS011;55037;52.354;4.992;2024-01-06T12:17:04;16.38;;;15.07;;
68216;SDS011;55037;52.354;4.992;2024-01-06T12:19:32;16.20;;;14.93;;
68216;SDS011;55037;52.354;4.992;2024-01-06T12:22:06;17.38;;;16.13;;
68216;SDS011;55037;52.354;4.992;2024-01-06T12:24:34;16.83;;;15.52;;
68216;SDS011;55037;52.354;4.992;2024-01-06T12:27:01;16.23;;;15.07;;
68216;SDS011;55037;52.354;4.992;2024-01-06T12:29:29;16.63;;;15.23;;
68216;SDS011;55037;52.354;4.992;2024-01-06T12:31:59;16.65;;;15.45;;
68216;SDS011;55037;52.354;4.992;2024-01-06T12:34:27;17.02;;;15.73;;
68216;SDS011;55037;52.354;4.992;2024-01-06T12:36:55;17.92;;;16.63;;
68216;SDS011;55037;52.354;4.992;2024-01-06T12:39:22;19.45;;;18.00;;
68216;SDS011;55037;52.354;4.992;2024-01-06T12:41:50;19.13;;;17.63;;
68216;SDS011;55037;52.354;4.992;2024-01-06T12:44:18;20.45;;;18.90;;
68216;SDS011;55037;52.354;4.992;2024-01-06T12:46:46;21.33;;;19.73;;
68216;SDS011;55037;52.354;4.992;2024-01-06T12:49:14;19.60;;;18.17;;
68216;SDS011;55037;52.354;4.992;2024-01-06T12:51:42;20.02;;;18.63;;
68216;SDS011;55037;52.354;4.992;2024-01-06T12:54:11;20.80;;;19.13;;
68216;SDS011;55037;52.354;4.992;2024-01-06T12:56:40;20.03;;;18.43;;
68216;SDS011;55037;52.354;4.992;2024-01-06T12:59:07;19.85;;;18.35;;
68216;SDS011;55037;52.354;4.992;2024-01-06T13:01:35;19.57;;;18.17;;
68216;SDS011;55037;52.354;4.992;2024-01-06T13:04:03;20.90;;;19.40;;
68216;SDS011;55037;52.354;4.992;2024-01-06T13:06:31;20.73;;;19.10;;
68216;SDS011;55037;52.354;4.992;2024-01-06T13:08:58;19.27;;;17.77;;
68216;SDS011;55037;52.354;4.992;2024-01-06T13:11:29;21.92;;;20.02;;
68216;SDS011;55037;52.354;4.992;2024-01-06T13:13:56;19.23;;;17.90;;
68216;SDS011;55037;52.354;4.992;2024-01-06T13:16:24;20.38;;;18.77;;
68216;SDS011;55037;52.354;4.992;2024-01-06T13:18:51;20.17;;;18.77;;
68216;SDS011;55037;52.354;4.992;2024-01-06T13:21:21;20.77;;;19.17;;
68216;SDS011;55037;52.354;4.992;2024-01-06T13:23:49;20.05;;;18.55;;
68216;SDS011;55037;52.354;4.992;2024-01-06T13:26:19;21.35;;;19.63;;
68216;SDS011;55037;52.354;4.992;2024-01-06T13:28:47;20.42;;;18.90;;
68216;SDS011;55037;52.354;4.992;2024-01-06T13:31:14;19.58;;;18.25;;
68216;SDS011;55037;52.354;4.992;2024-01-06T13:33:42;22.05;;;19.75;;
68216;SDS011;55037;52.354;4.992;2024-01-06T13:36:10;20.52;;;19.10;;
68216;SDS011;55037;52.354;4.992;2024-01-06T13:38:38;21.88;;;20.27;;
68216;SDS011;55037;52.354;4.992;2024-01-06T13:41:05;19.67;;;18.17;;
68216;SDS011;55037;52.354;4.992;2024-01-06T13:43:34;20.65;;;19.17;;
68216;SDS011;55037;52.354;4.992;2024-01-06T13:46:01;20.77;;;19.27;;
68216;SDS011;55037;52.354;4.992;2024-01-06T13:48:32;21.65;;;19.90;;
68216;SDS011;55037;52.354;4.992;2024-01-06T13:50:59;21.13;;;19.57;;
68216;SDS011;55037;52.354;4.992;2024-01-06T13:53:27;20.10;;;18.65;;
68216;SDS011;55037;52.354;4.992;2024-01-06T13:55:55;20.30;;;18.80;;
68216;SDS011;55037;52.354;4.992;2024-01-06T13:58:22;20.92;;;19.40;;
68216;SDS011;55037;52.354;4.992;2024-01-06T14:00:50;19.23;;;17.83;;
68216;SDS011;55037;52.354;4.992;2024-01-06T14:03:18;20.67;;;19.10;;
68216;SDS011;55037;52.354;4.992;2024-01-06T14:05:45;19.73;;;18.40;;
68216;SDS011;55037;52.354;4.992;2024-01-06T14:08:13;19.73;;;18.37;;
68216;SDS011;55037;52.354;4.992;2024-01-06T14:10:41;21.13;;;19.63;;
68216;SDS011;55037;52.354;4.992;2024-01-06T14:13:08;20.05;;;18.58;;
68216;SDS011;55037;52.354;4.992;2024-01-06T14:15:36;19.50;;;18.10;;
68216;SDS011;55037;52.354;4.992;2024-01-06T14:18:03;20.47;;;18.87;;
68216;SDS011;55037;52.354;4.992;2024-01-06T14:20:31;20.10;;;18.65;;
68216;SDS011;55037;52.354;4.992;2024-01-06T14:23:04;21.30;;;19.70;;
68216;SDS011;55037;52.354;4.992;2024-01-06T14:25:32;21.20;;;19.60;;
68216;SDS011;55037;52.354;4.992;2024-01-06T14:27:59;21.10;;;19.40;;